createdAt,value
2019-04-11T00:00:50.469Z,17.48
2019-04-11T00:03:53.440Z,18.50
2019-04-11T00:06:56.025Z,19.48
2019-04-11T00:09:57.445Z,17.95
2019-04-11T00:12:59.152Z,17.45
2019-04-11T00:16:01.297Z,16.30
2019-04-11T00:19:03.113Z,17.10
2019-04-11T00:22:05.577Z,17.80
2019-04-11T00:25:07.359Z,16.87
2019-04-11T00:28:09.750Z,17.57
2019-04-11T00:31:12.483Z,15.78
2019-04-11T00:34:15.000Z,17.37
2019-04-11T00:37:17.072Z,17.25
2019-04-11T00:40:18.824Z,15.90
2019-04-11T00:43:30.858Z,15.68
2019-04-11T00:46:24.833Z,17.20
2019-04-11T00:49:26.333Z,16.17
2019-04-11T00:52:27.622Z,16.73
2019-04-11T00:55:29.385Z,16.15
2019-04-11T00:58:31.877Z,16.23
2019-04-11T01:01:33.742Z,16.85
2019-04-11T01:04:35.001Z,15.65
2019-04-11T01:07:36.476Z,16.35
2019-04-11T01:10:37.759Z,16.77
2019-04-11T01:13:47.338Z,17.20
2019-04-11T01:16:45.096Z,17.75
2019-04-11T01:19:46.884Z,17.60
2019-04-11T01:22:48.696Z,17.52
2019-04-11T01:25:51.372Z,18.50
2019-04-11T01:28:53.572Z,17.42
2019-04-11T01:31:57.976Z,18.35
2019-04-11T01:34:59.521Z,17.75
2019-04-11T01:38:00.971Z,19.52
2019-04-11T01:41:02.955Z,19.82
2019-04-11T01:44:07.107Z,21.05
2019-04-11T01:47:09.470Z,20.00
2019-04-11T01:50:12.567Z,19.73
2019-04-11T01:53:15.119Z,19.45
2019-04-11T01:56:16.900Z,20.32
2019-04-11T01:59:21.593Z,18.57
2019-04-11T02:02:24.856Z,19.73
2019-04-11T02:05:29.263Z,18.25
2019-04-11T02:08:31.299Z,17.67
2019-04-11T02:11:33.869Z,17.40
2019-04-11T02:14:35.496Z,17.73
2019-04-11T02:17:37.708Z,17.45
2019-04-11T02:20:39.049Z,18.70
2019-04-11T02:23:43.409Z,19.05
2019-04-11T02:26:47.252Z,18.45
2019-04-11T02:29:49.035Z,19.32
2019-04-11T02:32:51.830Z,19.80
2019-04-11T02:35:54.245Z,20.97
2019-04-11T02:38:58.936Z,19.37
2019-04-11T02:41:59.225Z,18.92
2019-04-11T02:45:19.633Z,18.82
2019-04-11T02:48:09.334Z,21.10
2019-04-11T02:51:12.256Z,21.12
2019-04-11T02:54:13.702Z,20.08
2019-04-11T02:57:16.407Z,16.25
2019-04-11T03:00:20.359Z,16.57
2019-04-11T03:03:23.032Z,15.88
2019-04-11T03:06:25.856Z,15.10
2019-04-11T03:09:28.977Z,15.93
2019-04-11T03:12:31.819Z,14.25
2019-04-11T03:15:53.907Z,15.75
2019-04-11T03:18:54.692Z,15.85
2019-04-11T03:21:43.618Z,14.95
2019-04-11T03:24:44.178Z,15.03
2019-04-11T03:27:47.390Z,15.38
2019-04-11T03:31:24.365Z,15.50
2019-04-11T03:40:20.415Z,15.10
2019-04-11T03:43:16.439Z,14.85
2019-04-11T03:46:25.044Z,13.48
2019-04-11T03:49:20.729Z,13.85
2019-04-11T03:52:12.378Z,13.70
2019-04-11T03:55:15.082Z,14.43
2019-04-11T03:58:17.417Z,14.43
2019-04-11T04:01:21.207Z,14.55
2019-04-11T04:04:23.733Z,14.10
2019-04-11T04:07:25.426Z,13.80
2019-04-11T04:10:27.790Z,13.83
2019-04-11T04:13:31.618Z,12.95
2019-04-11T04:16:48.279Z,13.20
2019-04-11T04:19:56.380Z,12.63
2019-04-11T04:23:00.882Z,12.75
2019-04-11T04:26:03.236Z,14.45
2019-04-11T04:29:05.331Z,13.68
2019-04-11T04:32:08.241Z,14.15
2019-04-11T04:35:14.451Z,14.53
2019-04-11T04:38:13.751Z,14.00
2019-04-11T04:41:28.202Z,14.03
2019-04-11T04:44:22.203Z,14.25
2019-04-11T04:47:32.755Z,13.72
2019-04-11T04:50:26.821Z,13.03
2019-04-11T04:53:31.001Z,14.10
2019-04-11T04:56:34.802Z,15.18
2019-04-11T04:59:38.417Z,14.40
2019-04-11T05:02:39.904Z,14.90
2019-04-11T05:05:42.481Z,14.98
2019-04-11T05:08:45.124Z,13.65
2019-04-11T05:11:46.748Z,14.25
2019-04-11T05:14:49.683Z,14.68
2019-04-11T05:17:51.327Z,15.88
2019-04-11T05:20:52.915Z,17.37
2019-04-11T05:23:55.150Z,17.62
2019-04-11T05:26:57.863Z,19.23
2019-04-11T05:29:59.370Z,16.93
2019-04-11T05:33:01.732Z,18.67
2019-04-11T05:36:04.042Z,17.82
2019-04-11T05:39:06.720Z,16.02
2019-04-11T05:42:09.099Z,16.85
2019-04-11T05:45:15.913Z,17.75
2019-04-11T05:48:25.958Z,18.62
2019-04-11T05:51:36.865Z,20.00
2019-04-11T05:54:41.805Z,18.85
2019-04-11T05:57:44.938Z,16.65
2019-04-11T06:00:51.485Z,18.25
2019-04-11T06:03:55.487Z,15.10
2019-04-11T06:07:07.933Z,14.30
2019-04-11T06:10:14.359Z,13.88
2019-04-11T06:13:26.920Z,15.38
2019-04-11T06:16:37.884Z,13.62
2019-04-11T06:19:42.147Z,15.00
2019-04-11T06:22:54.314Z,13.10
2019-04-11T06:26:00.885Z,14.13
2019-04-11T06:29:15.449Z,15.18
2019-04-11T06:32:19.381Z,14.95
2019-04-11T06:35:28.802Z,14.25
2019-04-11T06:38:44.919Z,13.90
2019-04-11T06:41:48.623Z,14.98
2019-04-11T06:44:52.204Z,14.07
2019-04-11T06:47:59.034Z,12.98
2019-04-11T06:51:08.693Z,13.65
2019-04-11T06:54:28.701Z,14.10
2019-04-11T06:57:34.349Z,14.58
2019-04-11T07:00:37.202Z,16.20
2019-04-11T07:03:40.641Z,15.55
2019-04-11T07:06:44.050Z,15.13
2019-04-11T07:09:47.602Z,14.90
2019-04-11T07:12:52.971Z,16.23
2019-04-11T07:15:54.832Z,18.12
2019-04-11T07:19:04.909Z,17.92
2019-04-11T07:22:25.215Z,17.98
2019-04-11T07:25:28.969Z,20.68
2019-04-11T07:28:41.774Z,21.55
2019-04-11T07:31:48.320Z,20.08
2019-04-11T07:35:09.187Z,18.62
2019-04-11T07:38:13.954Z,19.30
2019-04-11T07:41:34.421Z,20.35
2019-04-11T07:44:40.809Z,19.73
2019-04-11T07:47:48.425Z,21.62
2019-04-11T07:50:51.031Z,20.43
2019-04-11T07:53:54.639Z,18.60
2019-04-11T07:56:58.692Z,17.05
2019-04-11T08:00:06.016Z,16.42
2019-04-11T08:03:27.944Z,17.48
2019-04-11T08:09:50.708Z,23.57
2019-04-11T08:12:54.085Z,22.27
2019-04-11T08:15:57.989Z,30.65
2019-04-11T08:19:04.049Z,23.47
2019-04-11T08:22:25.138Z,22.02
2019-04-11T08:25:31.467Z,19.57
2019-04-11T08:28:34.401Z,20.45
2019-04-11T08:31:56.254Z,19.82
2019-04-11T08:35:03.957Z,26.30
2019-04-11T08:38:12.059Z,24.52
2019-04-11T08:41:27.519Z,22.25
2019-04-11T08:44:30.073Z,21.07
2019-04-11T08:47:46.377Z,20.62
2019-04-11T08:50:39.117Z,19.57
2019-04-11T08:53:42.818Z,22.62
2019-04-11T08:56:45.370Z,21.50
2019-04-11T08:59:54.597Z,23.20
2019-04-11T09:03:10.267Z,19.52
2019-04-11T09:06:14.683Z,22.52
2019-04-11T09:09:18.798Z,20.43
2019-04-11T09:12:20.587Z,23.87
2019-04-11T09:15:41.233Z,25.72
2019-04-11T09:18:44.099Z,21.55
2019-04-11T09:22:04.726Z,28.27
2019-04-11T09:25:11.188Z,23.15
2019-04-11T09:28:15.382Z,22.55
2019-04-11T09:31:34.136Z,21.30
2019-04-11T09:34:40.113Z,20.12
2019-04-11T09:37:44.247Z,19.65
2019-04-11T09:40:50.116Z,19.92
2019-04-11T09:43:53.917Z,21.30
2019-04-11T09:47:13.632Z,22.80
2019-04-11T09:50:28.884Z,21.77
2019-04-11T09:53:30.730Z,24.52
2019-04-11T09:56:51.654Z,24.43
2019-04-11T09:59:55.964Z,26.37
2019-04-11T10:03:02.291Z,23.92
2019-04-11T10:06:21.620Z,19.45
2019-04-11T10:09:26.119Z,18.65
2019-04-11T10:12:40.444Z,20.75
2019-04-11T10:15:45.202Z,20.68
2019-04-11T10:19:03.477Z,24.00
2019-04-11T10:22:09.478Z,22.25
2019-04-11T10:25:19.092Z,20.52
2019-04-11T10:28:41.771Z,17.35
2019-04-11T10:31:47.765Z,20.82
2019-04-11T10:35:08.176Z,22.13
2019-04-11T10:38:12.017Z,21.73
2019-04-11T10:41:34.189Z,24.10
2019-04-11T10:44:54.302Z,22.50
2019-04-11T10:47:55.992Z,20.05
2019-04-11T10:51:00.397Z,19.52
2019-04-11T10:54:05.122Z,20.72
2019-04-11T10:57:10.029Z,20.10
2019-04-11T11:00:16.422Z,18.98
2019-04-11T11:03:22.869Z,19.07
2019-04-11T11:06:27.387Z,19.00
2019-04-11T11:09:37.120Z,16.55
2019-04-11T11:12:59.189Z,20.05
2019-04-11T11:16:00.710Z,19.02
2019-04-11T11:19:31.201Z,19.00
2019-04-11T11:22:20.921Z,17.07
2019-04-11T11:25:48.383Z,19.07
2019-04-11T11:29:07.143Z,18.90
2019-04-11T11:32:09.259Z,18.15
2019-04-11T11:35:15.226Z,18.27
2019-04-11T11:38:24.406Z,21.02
2019-04-11T11:41:44.787Z,18.30
2019-04-11T11:48:01.507Z,20.52
2019-04-11T11:51:05.458Z,20.20
2019-04-11T11:54:13.715Z,21.60
2019-04-11T11:57:16.882Z,21.37
2019-04-11T12:00:21.119Z,20.02
2019-04-11T12:03:44.520Z,16.97
2019-04-11T12:06:48.190Z,15.93
2019-04-11T12:10:09.089Z,15.95
2019-04-11T12:13:28.502Z,15.90
2019-04-11T12:16:33.032Z,16.40
2019-04-11T12:19:48.822Z,17.57
2019-04-11T12:22:42.740Z,16.95
2019-04-11T12:25:47.570Z,15.98
2019-04-11T12:28:52.066Z,14.90
2019-04-11T12:31:55.755Z,15.70
2019-04-11T12:35:14.006Z,16.73
2019-04-11T12:38:35.654Z,16.40
2019-04-11T12:41:55.332Z,16.30
2019-04-11T12:45:06.439Z,22.03
2019-04-11T12:48:07.775Z,17.62
2019-04-11T12:51:17.175Z,20.32
2019-04-11T12:54:20.414Z,16.37
2019-04-11T12:57:40.436Z,14.60
2019-04-11T13:01:00.634Z,17.80
2019-04-11T13:04:07.242Z,16.75
2019-04-11T13:07:10.413Z,16.02
2019-04-11T13:10:12.431Z,15.30
2019-04-11T13:13:27.875Z,17.07
2019-04-11T13:16:29.745Z,14.93
2019-04-11T13:19:36.278Z,16.37
2019-04-11T13:22:37.777Z,17.10
2019-04-11T13:25:41.100Z,14.95
2019-04-11T13:28:47.038Z,16.20
2019-04-11T13:31:53.278Z,16.27
2019-04-11T13:35:02.554Z,14.55
2019-04-11T13:38:11.723Z,15.72
2019-04-11T13:41:23.861Z,16.30
2019-04-11T13:44:25.244Z,16.45
2019-04-11T13:47:40.622Z,15.32
2019-04-11T13:50:41.890Z,15.32
2019-04-11T13:54:01.650Z,16.65
2019-04-11T13:57:21.557Z,18.00
2019-04-11T14:00:31.713Z,12.07
2019-04-11T14:03:51.610Z,14.83
2019-04-11T14:06:52.962Z,15.45
2019-04-11T14:10:01.346Z,14.73
2019-04-11T14:13:05.938Z,15.60
2019-04-11T14:16:24.433Z,18.73
2019-04-11T14:19:27.601Z,16.37
2019-04-11T14:22:47.512Z,17.27
2019-04-11T14:25:50.678Z,12.40
2019-04-11T14:28:53.841Z,14.75
2019-04-11T14:31:59.889Z,14.25
2019-04-11T14:35:20.193Z,14.95
2019-04-11T14:38:23.370Z,15.98
2019-04-11T14:41:27.106Z,16.32
2019-04-11T14:44:30.619Z,19.17
2019-04-11T14:47:51.165Z,16.95
2019-04-11T14:54:12.141Z,17.27
2019-04-11T14:57:23.294Z,16.90
2019-04-11T15:00:32.346Z,15.90
2019-04-11T15:03:53.527Z,15.40
2019-04-11T15:06:56.883Z,15.30
2019-04-11T15:10:00.115Z,15.15
2019-04-11T15:13:02.857Z,16.20
2019-04-11T15:16:22.622Z,15.53
2019-04-11T15:19:24.013Z,15.45
2019-04-11T15:22:28.091Z,16.07
2019-04-11T15:25:37.857Z,15.83
2019-04-11T15:32:04.941Z,17.37
2019-04-11T15:35:06.769Z,18.70
2019-04-11T15:38:26.680Z,18.10
2019-04-11T15:41:32.466Z,17.50
2019-04-11T15:44:36.347Z,16.93
2019-04-11T15:47:39.595Z,16.27
2019-04-11T15:51:06.480Z,18.02
2019-04-11T15:54:14.562Z,18.57
2019-04-11T15:57:17.794Z,18.60
2019-04-11T16:00:21.014Z,19.90
2019-04-11T16:03:24.516Z,18.17
2019-04-11T16:06:35.174Z,19.05
2019-04-11T16:09:37.331Z,30.45
2019-04-11T16:12:41.369Z,21.55
2019-04-11T16:15:44.562Z,22.35
2019-04-11T16:18:47.935Z,22.07
2019-04-11T16:22:00.213Z,23.42
2019-04-11T16:25:06.803Z,26.02
2019-04-11T16:28:21.928Z,23.50
2019-04-11T16:31:25.177Z,26.37
2019-04-11T16:34:28.662Z,30.20
2019-04-11T16:37:30.194Z,24.70
2019-04-11T16:40:36.371Z,24.63
2019-04-11T16:43:39.549Z,53.02
2019-04-11T16:46:59.303Z,36.25
2019-04-11T16:50:02.953Z,29.55
2019-04-11T16:53:04.438Z,33.70
2019-04-11T16:56:05.818Z,45.28
2019-04-11T16:59:07.790Z,59.63
2019-04-11T17:02:09.025Z,57.93
2019-04-11T17:05:10.491Z,89.25
2019-04-11T17:08:13.676Z,50.12
2019-04-11T17:11:18.974Z,53.25
2019-04-11T17:14:27.896Z,108.40
2019-04-11T17:17:26.261Z,43.33
2019-04-11T17:20:28.598Z,48.38
2019-04-11T17:23:30.070Z,49.58
2019-04-11T17:26:31.373Z,39.20
2019-04-11T17:29:32.687Z,32.67
2019-04-11T17:32:34.457Z,31.35
2019-04-11T17:35:38.107Z,34.40
2019-04-11T17:38:39.676Z,33.50
2019-04-11T17:41:43.814Z,34.48
2019-04-11T17:44:45.641Z,33.10
2019-04-11T17:47:47.197Z,39.03
2019-04-11T17:50:48.836Z,41.05
2019-04-11T17:53:50.208Z,43.48
2019-04-11T17:56:54.662Z,45.80
2019-04-11T17:59:56.732Z,42.93
2019-04-11T18:02:58.736Z,36.98
2019-04-11T18:06:00.407Z,41.08
2019-04-11T18:09:01.991Z,41.75
2019-04-11T18:12:03.305Z,39.10
2019-04-11T18:15:07.509Z,31.97
2019-04-11T18:18:09.327Z,34.60
2019-04-11T18:21:11.294Z,35.13
2019-04-11T18:24:12.684Z,39.65
2019-04-11T18:27:14.123Z,36.40
2019-04-11T18:30:16.172Z,34.00
2019-04-11T18:33:18.604Z,35.05
2019-04-11T18:36:20.930Z,35.75
2019-04-11T18:39:22.639Z,35.78
2019-04-11T18:42:24.048Z,33.48
2019-04-11T18:45:25.795Z,33.60
2019-04-11T18:48:27.209Z,47.67
2019-04-11T18:51:30.576Z,46.30
2019-04-11T18:54:34.294Z,38.95
2019-04-11T18:57:36.610Z,34.70
2019-04-11T19:00:39.043Z,36.05
2019-04-11T19:03:48.924Z,37.42
2019-04-11T19:06:52.985Z,40.08
2019-04-11T19:09:55.882Z,42.53
2019-04-11T19:12:57.418Z,39.20
2019-04-11T19:15:59.356Z,43.95
2019-04-11T19:19:01.954Z,37.73
2019-04-11T19:22:04.544Z,42.60
2019-04-11T19:25:11.811Z,59.23
2019-04-11T19:28:11.803Z,45.60
2019-04-11T19:31:13.211Z,39.73
2019-04-11T19:34:14.925Z,38.10
2019-04-11T19:37:16.455Z,37.75
2019-04-11T19:40:18.102Z,37.58
2019-04-11T19:43:20.078Z,41.23
2019-04-11T19:46:21.911Z,45.95
2019-04-11T19:49:28.704Z,49.13
2019-04-11T19:52:32.602Z,46.23
2019-04-11T19:55:48.189Z,43.45
2019-04-11T19:58:51.657Z,41.90
2019-04-11T20:01:54.482Z,40.40
2019-04-11T20:04:57.923Z,34.50
2019-04-11T20:08:00.758Z,43.13
2019-04-11T20:11:02.946Z,44.38
2019-04-11T20:14:04.526Z,33.38
2019-04-11T20:17:09.238Z,29.92
2019-04-11T20:20:11.241Z,24.45
2019-04-11T20:23:13.533Z,20.15
2019-04-11T20:26:19.996Z,19.70
2019-04-11T20:29:21.393Z,23.35
2019-04-11T20:32:24.213Z,23.52
2019-04-11T20:35:29.238Z,24.43
2019-04-11T20:38:29.087Z,26.85
2019-04-11T20:41:30.652Z,41.48
2019-04-11T20:44:31.939Z,30.27
2019-04-11T20:47:33.816Z,22.10
2019-04-11T20:50:35.098Z,22.42
2019-04-11T20:53:37.684Z,20.92
2019-04-11T20:56:40.459Z,21.10
2019-04-11T20:59:42.858Z,25.15
2019-04-11T21:02:44.158Z,17.98
2019-04-11T21:05:45.812Z,19.67
2019-04-11T21:08:47.846Z,18.85
2019-04-11T21:11:49.368Z,20.77
2019-04-11T21:14:50.635Z,18.32
2019-04-11T21:17:53.645Z,17.65
2019-04-11T21:20:55.901Z,17.55
2019-04-11T21:24:00.409Z,19.52
2019-04-11T21:27:01.441Z,15.00
2019-04-11T21:30:05.017Z,16.80
2019-04-11T21:33:06.398Z,14.58
2019-04-11T21:36:08.041Z,15.75
2019-04-11T21:39:10.494Z,18.40
2019-04-11T21:42:11.965Z,13.30
2019-04-11T21:45:13.183Z,15.93
2019-04-11T21:48:14.482Z,16.45
2019-04-11T21:51:16.958Z,13.88
2019-04-11T21:54:18.229Z,16.73
2019-04-11T21:57:19.603Z,13.72
2019-04-11T22:00:26.564Z,13.78
2019-04-11T22:03:28.098Z,13.08
2019-04-11T22:06:31.379Z,13.18
2019-04-11T22:09:35.525Z,12.28
2019-04-11T22:12:39.785Z,13.83
2019-04-11T22:15:42.538Z,13.90
2019-04-11T22:18:44.334Z,12.30
2019-04-11T22:21:46.452Z,12.00
2019-04-11T22:24:47.733Z,11.38
2019-04-11T22:27:51.048Z,12.25
2019-04-11T22:30:55.190Z,12.18
2019-04-11T22:33:58.641Z,12.07
2019-04-11T22:37:00.607Z,11.03
2019-04-11T22:40:05.698Z,12.15
2019-04-11T22:43:08.151Z,11.22
2019-04-11T22:46:20.130Z,12.18
2019-04-11T22:49:12.921Z,12.40
2019-04-11T22:52:14.198Z,12.93
2019-04-11T22:55:16.781Z,12.43
2019-04-11T22:58:18.086Z,11.95
2019-04-11T23:01:19.467Z,11.08
2019-04-11T23:04:20.746Z,10.82
2019-04-11T23:07:24.038Z,10.85
2019-04-11T23:10:26.462Z,10.20
2019-04-11T23:13:27.961Z,10.38
2019-04-11T23:16:29.236Z,10.35
2019-04-11T23:19:30.534Z,9.90
2019-04-11T23:22:31.994Z,10.32
2019-04-11T23:25:33.503Z,10.60
2019-04-11T23:28:34.807Z,10.53
2019-04-11T23:31:36.158Z,10.08
2019-04-11T23:34:38.358Z,10.08
2019-04-11T23:37:51.173Z,9.90
2019-04-11T23:40:52.710Z,9.10
2019-04-11T23:43:54.393Z,9.20
2019-04-11T23:46:55.673Z,8.73
2019-04-11T23:49:57.807Z,9.83
2019-04-11T23:52:59.077Z,9.70
2019-04-11T23:56:00.799Z,9.58
2019-04-11T23:59:02.713Z,9.48
